sensor_id;sensor_type;location;lat;lon;timestamp;pressure;altitude;pressure_sealevel;temperature;humidity
35908;BME280;22003;50.320;8.054;2023-11-18T00:00:04;100588.94;;;2.43;100.00
35908;BME280;22003;50.320;8.054;2023-11-18T00:02:36;100592.19;;;2.23;100.00
35908;BME280;22003;50.320;8.054;2023-11-18T00:05:01;100586.13;;;2.21;100.00
35908;BME280;22003;50.320;8.054;2023-11-18T00:07:26;100582.47;;;2.27;100.00
35908;BME280;22003;50.320;8.054;2023-11-18T00:09:51;100583.44;;;2.24;100.00
35908;BME280;22003;50.320;8.054;2023-11-18T00:12:17;100558.25;;;1.92;100.00
35908;BME280;22003;50.320;8.054;2023-11-18T00:14:42;100577.19;;;2.00;100.00
35908;BME280;22003;50.320;8.054;2023-11-18T00:17:08;100542.84;;;1.83;100.00
35908;BME280;22003;50.320;8.054;2023-11-18T00:19:33;100584.56;;;2.16;100.00
35908;BME280;22003;50.320;8.054;2023-11-18T00:21:59;100583.03;;;2.08;100.00
35908;BME280;22003;50.320;8.054;2023-11-18T00:24:24;100586.75;;;2.29;100.00
35908;BME280;22003;50.320;8.054;2023-11-18T00:26:50;100561.31;;;2.06;100.00
35908;BME280;22003;50.320;8.054;2023-11-18T00:29:15;100588.22;;;2.10;100.00
35908;BME280;22003;50.320;8.054;2023-11-18T00:31:40;100587.16;;;2.17;100.00
35908;BME280;22003;50.320;8.054;2023-11-18T00:34:05;100589.72;;;1.89;100.00
35908;BME280;22003;50.320;8.054;2023-11-18T00:36:31;100585.13;;;2.25;100.00
35908;BME280;22003;50.320;8.054;2023-11-18T00:38:56;100582.84;;;2.15;100.00
35908;BME280;22003;50.320;8.054;2023-11-18T00:41:21;100589.16;;;2.07;100.00
35908;BME280;22003;50.320;8.054;2023-11-18T00:43:47;100600.41;;;2.09;100.00
35908;BME280;22003;50.320;8.054;2023-11-18T00:46:13;100610.81;;;2.13;100.00
35908;BME280;22003;50.320;8.054;2023-11-18T00:48:38;100601.09;;;2.16;100.00
35908;BME280;22003;50.320;8.054;2023-11-18T00:51:05;100539.06;;;1.93;100.00
35908;BME280;22003;50.320;8.054;2023-11-18T00:53:31;100601.28;;;2.40;100.00
35908;BME280;22003;50.320;8.054;2023-11-18T00:55:56;100563.22;;;2.01;100.00
35908;BME280;22003;50.320;8.054;2023-11-18T00:58:21;100581.09;;;2.15;100.00
35908;BME280;22003;50.320;8.054;2023-11-18T01:00:46;100606.00;;;2.27;100.00
35908;BME280;22003;50.320;8.054;2023-11-18T01:03:12;100596.41;;;2.27;100.00
35908;BME280;22003;50.320;8.054;2023-11-18T01:05:37;100593.84;;;2.26;100.00
35908;BME280;22003;50.320;8.054;2023-11-18T01:08:04;100575.72;;;2.20;100.00
35908;BME280;22003;50.320;8.054;2023-11-18T01:10:30;100567.09;;;2.18;100.00
35908;BME280;22003;50.320;8.054;2023-11-18T01:12:56;100580.81;;;2.24;100.00
35908;BME280;22003;50.320;8.054;2023-11-18T01:15:23;100589.50;;;2.25;100.00
35908;BME280;22003;50.320;8.054;2023-11-18T01:17:48;100594.94;;;2.19;100.00
35908;BME280;22003;50.320;8.054;2023-11-18T01:20:13;100604.47;;;2.20;100.00
35908;BME280;22003;50.320;8.054;2023-11-18T01:22:39;100568.56;;;1.97;100.00
35908;BME280;22003;50.320;8.054;2023-11-18T01:25:07;100614.44;;;2.36;100.00
35908;BME280;22003;50.320;8.054;2023-11-18T01:27:33;100604.28;;;2.26;100.00
35908;BME280;22003;50.320;8.054;2023-11-18T01:29:59;100588.25;;;2.08;100.00
35908;BME280;22003;50.320;8.054;2023-11-18T01:32:25;100598.06;;;2.30;100.00
35908;BME280;22003;50.320;8.054;2023-11-18T01:34:51;100596.44;;;2.26;100.00
35908;BME280;22003;50.320;8.054;2023-11-18T01:37:16;100602.41;;;2.01;100.00
35908;BME280;22003;50.320;8.054;2023-11-18T01:39:42;100558.91;;;1.99;100.00
35908;BME280;22003;50.320;8.054;2023-11-18T01:42:07;100586.56;;;2.07;100.00
35908;BME280;22003;50.320;8.054;2023-11-18T01:44:33;100589.47;;;1.97;100.00
35908;BME280;22003;50.320;8.054;2023-11-18T01:47:01;100587.41;;;2.08;100.00
35908;BME280;22003;50.320;8.054;2023-11-18T01:49:28;100588.44;;;2.02;100.00
35908;BME280;22003;50.320;8.054;2023-11-18T01:51:53;100546.16;;;1.90;100.00
35908;BME280;22003;50.320;8.054;2023-11-18T01:54:19;100594.56;;;2.31;100.00
35908;BME280;22003;50.320;8.054;2023-11-18T01:56:48;100583.38;;;2.26;100.00
35908;BME280;22003;50.320;8.054;2023-11-18T01:59:14;100588.94;;;2.15;100.00
35908;BME280;22003;50.320;8.054;2023-11-18T02:01:50;100606.00;;;1.97;100.00
35908;BME280;22003;50.320;8.054;2023-11-18T02:04:16;100579.47;;;1.81;100.00
35908;BME280;22003;50.320;8.054;2023-11-18T02:06:45;100599.97;;;2.25;100.00
35908;BME280;22003;50.320;8.054;2023-11-18T02:09:11;100603.28;;;2.02;100.00
35908;BME280;22003;50.320;8.054;2023-11-18T02:11:45;100583.81;;;2.12;100.00
35908;BME280;22003;50.320;8.054;2023-11-18T02:14:13;100593.50;;;1.79;100.00
35908;BME280;22003;50.320;8.054;2023-11-18T02:16:42;100620.06;;;1.93;100.00
35908;BME280;22003;50.320;8.054;2023-11-18T02:19:19;100603.88;;;2.11;100.00
35908;BME280;22003;50.320;8.054;2023-11-18T02:21:45;100613.22;;;1.89;100.00
35908;BME280;22003;50.320;8.054;2023-11-18T02:24:10;100574.72;;;1.65;100.00
35908;BME280;22003;50.320;8.054;2023-11-18T02:26:36;100619.31;;;2.19;100.00
35908;BME280;22003;50.320;8.054;2023-11-18T02:29:01;100585.97;;;1.98;100.00
35908;BME280;22003;50.320;8.054;2023-11-18T02:31:34;100615.88;;;1.88;100.00
35908;BME280;22003;50.320;8.054;2023-11-18T02:34:08;100580.31;;;1.82;100.00
35908;BME280;22003;50.320;8.054;2023-11-18T02:36:44;100599.88;;;1.69;100.00
35908;BME280;22003;50.320;8.054;2023-11-18T02:39:39;100614.22;;;2.15;100.00
35908;BME280;22003;50.320;8.054;2023-11-18T02:42:08;100583.69;;;2.15;100.00
35908;BME280;22003;50.320;8.054;2023-11-18T02:44:38;100604.13;;;2.02;100.00
35908;BME280;22003;50.320;8.054;2023-11-18T02:47:04;100599.03;;;1.98;100.00
35908;BME280;22003;50.320;8.054;2023-11-18T02:49:36;100609.44;;;2.29;100.00
35908;BME280;22003;50.320;8.054;2023-11-18T02:52:02;100605.69;;;2.08;100.00
35908;BME280;22003;50.320;8.054;2023-11-18T02:54:27;100601.16;;;2.15;100.00
35908;BME280;22003;50.320;8.054;2023-11-18T02:56:53;100593.84;;;1.96;100.00
35908;BME280;22003;50.320;8.054;2023-11-18T02:59:18;100586.56;;;2.07;100.00
35908;BME280;22003;50.320;8.054;2023-11-18T03:01:43;100586.88;;;1.97;100.00
35908;BME280;22003;50.320;8.054;2023-11-18T03:04:09;100569.66;;;1.90;100.00
35908;BME280;22003;50.320;8.054;2023-11-18T03:06:35;100585.53;;;1.82;100.00
35908;BME280;22003;50.320;8.054;2023-11-18T03:09:01;100588.69;;;1.93;100.00
35908;BME280;22003;50.320;8.054;2023-11-18T03:11:26;100571.25;;;1.95;100.00
35908;BME280;22003;50.320;8.054;2023-11-18T03:13:55;100583.34;;;1.98;100.00
35908;BME280;22003;50.320;8.054;2023-11-18T03:16:20;100586.75;;;2.01;100.00
35908;BME280;22003;50.320;8.054;2023-11-18T03:18:45;100564.94;;;1.73;100.00
35908;BME280;22003;50.320;8.054;2023-11-18T03:21:11;100564.78;;;1.77;100.00
35908;BME280;22003;50.320;8.054;2023-11-18T03:23:40;100596.03;;;1.80;100.00
35908;BME280;22003;50.320;8.054;2023-11-18T03:26:06;100573.44;;;1.79;100.00
35908;BME280;22003;50.320;8.054;2023-11-18T03:28:32;100568.22;;;1.48;100.00
35908;BME280;22003;50.320;8.054;2023-11-18T03:30:57;100600.53;;;1.75;100.00
35908;BME280;22003;50.320;8.054;2023-11-18T03:33:23;100547.72;;;1.33;100.00
35908;BME280;22003;50.320;8.054;2023-11-18T03:35:48;100602.22;;;1.78;100.00
35908;BME280;22003;50.320;8.054;2023-11-18T03:38:14;100607.28;;;1.84;100.00
35908;BME280;22003;50.320;8.054;2023-11-18T03:40:40;100602.91;;;1.84;100.00
35908;BME280;22003;50.320;8.054;2023-11-18T03:43:06;100567.06;;;1.58;100.00
35908;BME280;22003;50.320;8.054;2023-11-18T03:45:32;100597.91;;;2.06;100.00
35908;BME280;22003;50.320;8.054;2023-11-18T03:47:57;100585.16;;;1.96;100.00
35908;BME280;22003;50.320;8.054;2023-11-18T03:50:23;100582.81;;;1.87;100.00
35908;BME280;22003;50.320;8.054;2023-11-18T03:52:48;100507.53;;;1.39;100.00
35908;BME280;22003;50.320;8.054;2023-11-18T03:55:13;100539.97;;;1.92;100.00
35908;BME280;22003;50.320;8.054;2023-11-18T03:57:38;100572.28;;;1.88;100.00
35908;BME280;22003;50.320;8.054;2023-11-18T04:00:04;100568.47;;;2.00;100.00
35908;BME280;22003;50.320;8.054;2023-11-18T04:02:30;100520.09;;;1.26;100.00
35908;BME280;22003;50.320;8.054;2023-11-18T04:04:55;100570.66;;;1.54;100.00
35908;BME280;22003;50.320;8.054;2023-11-18T04:07:20;100555.44;;;1.39;100.00
35908;BME280;22003;50.320;8.054;2023-11-18T04:09:46;100556.84;;;1.49;100.00
35908;BME280;22003;50.320;8.054;2023-11-18T04:12:12;100568.41;;;1.72;100.00
35908;BME280;22003;50.320;8.054;2023-11-18T04:14:37;100557.03;;;1.43;100.00
35908;BME280;22003;50.320;8.054;2023-11-18T04:17:03;100559.94;;;1.64;100.00
35908;BME280;22003;50.320;8.054;2023-11-18T04:19:28;100569.53;;;1.63;100.00
35908;BME280;22003;50.320;8.054;2023-11-18T04:21:54;100503.41;;;1.00;100.00
35908;BME280;22003;50.320;8.054;2023-11-18T04:24:19;100539.28;;;1.25;100.00
35908;BME280;22003;50.320;8.054;2023-11-18T04:26:44;100569.97;;;1.48;100.00
35908;BME280;22003;50.320;8.054;2023-11-18T04:29:09;100576.66;;;1.88;100.00
35908;BME280;22003;50.320;8.054;2023-11-18T04:31:35;100584.59;;;1.53;100.00
35908;BME280;22003;50.320;8.054;2023-11-18T04:34:01;100507.88;;;0.95;100.00
35908;BME280;22003;50.320;8.054;2023-11-18T04:36:26;100568.31;;;1.13;100.00
35908;BME280;22003;50.320;8.054;2023-11-18T04:38:52;100506.09;;;0.97;100.00
35908;BME280;22003;50.320;8.054;2023-11-18T04:41:17;100548.28;;;1.44;100.00
35908;BME280;22003;50.320;8.054;2023-11-18T04:43:43;100582.19;;;1.78;100.00
35908;BME280;22003;50.320;8.054;2023-11-18T04:46:08;100591.72;;;1.48;100.00
35908;BME280;22003;50.320;8.054;2023-11-18T04:48:33;100580.25;;;1.54;100.00
35908;BME280;22003;50.320;8.054;2023-11-18T04:51:00;100522.00;;;0.87;100.00
35908;BME280;22003;50.320;8.054;2023-11-18T04:53:25;100579.44;;;1.19;100.00
35908;BME280;22003;50.320;8.054;2023-11-18T04:55:51;100582.47;;;1.37;100.00
35908;BME280;22003;50.320;8.054;2023-11-18T04:58:16;100562.38;;;1.39;100.00
35908;BME280;22003;50.320;8.054;2023-11-18T05:00:41;100510.13;;;1.09;100.00
35908;BME280;22003;50.320;8.054;2023-11-18T05:03:08;100541.06;;;1.54;100.00
35908;BME280;22003;50.320;8.054;2023-11-18T05:05:38;100567.66;;;1.68;100.00
35908;BME280;22003;50.320;8.054;2023-11-18T05:08:04;100509.19;;;1.12;100.00
35908;BME280;22003;50.320;8.054;2023-11-18T05:10:32;100565.00;;;1.70;100.00
35908;BME280;22003;50.320;8.054;2023-11-18T05:12:57;100541.50;;;1.39;100.00
35908;BME280;22003;50.320;8.054;2023-11-18T05:15:22;100547.13;;;1.56;100.00
35908;BME280;22003;50.320;8.054;2023-11-18T05:17:53;100488.22;;;1.15;100.00
35908;BME280;22003;50.320;8.054;2023-11-18T05:20:19;100531.28;;;1.31;100.00
35908;BME280;22003;50.320;8.054;2023-11-18T05:22:45;100533.19;;;1.24;100.00
35908;BME280;22003;50.320;8.054;2023-11-18T05:25:10;100527.97;;;1.55;100.00
35908;BME280;22003;50.320;8.054;2023-11-18T05:27:36;100496.19;;;1.41;100.00
35908;BME280;22003;50.320;8.054;2023-11-18T05:30:02;100528.97;;;1.51;100.00
35908;BME280;22003;50.320;8.054;2023-11-18T05:32:28;100539.06;;;1.64;100.00
35908;BME280;22003;50.320;8.054;2023-11-18T05:34:54;100473.22;;;1.21;100.00
35908;BME280;22003;50.320;8.054;2023-11-18T05:37:22;100534.88;;;1.58;100.00
35908;BME280;22003;50.320;8.054;2023-11-18T05:39:48;100529.44;;;1.35;100.00
35908;BME280;22003;50.320;8.054;2023-11-18T05:42:18;100477.38;;;0.97;100.00
35908;BME280;22003;50.320;8.054;2023-11-18T05:44:44;100397.66;;;0.55;100.00
35908;BME280;22003;50.320;8.054;2023-11-18T05:47:09;100533.53;;;1.43;100.00
35908;BME280;22003;50.320;8.054;2023-11-18T05:49:37;100533.97;;;1.59;100.00
35908;BME280;22003;50.320;8.054;2023-11-18T05:52:03;100492.16;;;1.29;100.00
35908;BME280;22003;50.320;8.054;2023-11-18T05:54:29;100528.41;;;1.40;100.00
35908;BME280;22003;50.320;8.054;2023-11-18T05:56:54;100459.31;;;1.22;100.00
35908;BME280;22003;50.320;8.054;2023-11-18T05:59:19;100529.56;;;1.30;100.00
35908;BME280;22003;50.320;8.054;2023-11-18T06:01:45;100514.94;;;1.24;100.00
35908;BME280;22003;50.320;8.054;2023-11-18T06:04:12;100523.59;;;1.25;100.00
35908;BME280;22003;50.320;8.054;2023-11-18T06:06:37;100437.34;;;0.66;100.00
35908;BME280;22003;50.320;8.054;2023-11-18T06:09:03;100515.59;;;1.31;100.00
35908;BME280;22003;50.320;8.054;2023-11-18T06:11:34;100516.69;;;1.24;100.00
35908;BME280;22003;50.320;8.054;2023-11-18T06:14:00;100475.75;;;0.93;100.00
35908;BME280;22003;50.320;8.054;2023-11-18T06:16:26;100498.09;;;1.03;100.00
35908;BME280;22003;50.320;8.054;2023-11-18T06:18:53;100439.31;;;0.90;100.00
35908;BME280;22003;50.320;8.054;2023-11-18T06:21:20;100528.66;;;1.31;100.00
35908;BME280;22003;50.320;8.054;2023-11-18T06:23:46;100519.84;;;1.35;100.00
35908;BME280;22003;50.320;8.054;2023-11-18T06:26:12;100505.66;;;1.45;100.00
35908;BME280;22003;50.320;8.054;2023-11-18T06:28:39;100522.94;;;1.18;100.00
35908;BME280;22003;50.320;8.054;2023-11-18T06:31:05;100512.63;;;1.45;100.00
35908;BME280;22003;50.320;8.054;2023-11-18T06:33:36;100520.97;;;1.57;100.00
35908;BME280;22003;50.320;8.054;2023-11-18T06:36:01;100516.41;;;1.33;100.00
35908;BME280;22003;50.320;8.054;2023-11-18T06:38:27;100522.53;;;1.32;100.00
35908;BME280;22003;50.320;8.054;2023-11-18T06:40:52;100532.56;;;1.47;100.00
35908;BME280;22003;50.320;8.054;2023-11-18T06:43:19;100472.13;;;1.30;100.00
35908;BME280;22003;50.320;8.054;2023-11-18T06:45:44;100475.03;;;1.19;100.00
35908;BME280;22003;50.320;8.054;2023-11-18T06:48:09;100466.31;;;0.89;100.00
35908;BME280;22003;50.320;8.054;2023-11-18T06:50:35;100528.44;;;1.39;100.00
35908;BME280;22003;50.320;8.054;2023-11-18T06:53:00;100526.78;;;1.66;100.00
35908;BME280;22003;50.320;8.054;2023-11-18T06:55:26;100491.09;;;1.37;100.00
35908;BME280;22003;50.320;8.054;2023-11-18T06:57:52;100511.75;;;1.44;100.00
35908;BME280;22003;50.320;8.054;2023-11-18T07:00:17;100502.13;;;1.46;100.00
35908;BME280;22003;50.320;8.054;2023-11-18T07:02:43;100494.59;;;1.36;100.00
35908;BME280;22003;50.320;8.054;2023-11-18T07:05:08;100506.38;;;1.49;100.00
35908;BME280;22003;50.320;8.054;2023-11-18T07:07:34;100502.53;;;1.62;100.00
35908;BME280;22003;50.320;8.054;2023-11-18T07:09:59;100487.94;;;1.55;100.00
35908;BME280;22003;50.320;8.054;2023-11-18T07:12:25;100507.78;;;1.61;100.00
35908;BME280;22003;50.320;8.054;2023-11-18T07:14:50;100511.19;;;1.64;100.00
35908;BME280;22003;50.320;8.054;2023-11-18T07:17:15;100464.19;;;1.33;100.00
35908;BME280;22003;50.320;8.054;2023-11-18T07:19:44;100508.72;;;1.89;100.00
35908;BME280;22003;50.320;8.054;2023-11-18T07:22:10;100517.91;;;1.73;100.00
35908;BME280;22003;50.320;8.054;2023-11-18T07:24:35;100538.09;;;1.66;100.00
35908;BME280;22003;50.320;8.054;2023-11-18T07:27:00;100546.09;;;1.62;100.00
35908;BME280;22003;50.320;8.054;2023-11-18T07:29:26;100515.94;;;1.50;100.00
35908;BME280;22003;50.320;8.054;2023-11-18T07:31:52;100519.50;;;1.77;100.00
35908;BME280;22003;50.320;8.054;2023-11-18T07:34:19;100522.03;;;1.80;100.00
35908;BME280;22003;50.320;8.054;2023-11-18T07:36:45;100478.72;;;1.73;100.00
35908;BME280;22003;50.320;8.054;2023-11-18T07:39:12;100519.13;;;2.19;100.00
35908;BME280;22003;50.320;8.054;2023-11-18T07:41:41;100505.00;;;1.96;100.00
35908;BME280;22003;50.320;8.054;2023-11-18T07:44:07;100525.31;;;2.43;100.00
35908;BME280;22003;50.320;8.054;2023-11-18T07:46:32;100497.53;;;2.38;100.00
35908;BME280;22003;50.320;8.054;2023-11-18T07:48:57;100538.44;;;2.41;100.00
35908;BME280;22003;50.320;8.054;2023-11-18T07:51:23;100535.56;;;2.22;100.00
35908;BME280;22003;50.320;8.054;2023-11-18T07:53:49;100508.94;;;2.09;100.00
35908;BME280;22003;50.320;8.054;2023-11-18T07:56:15;100534.88;;;2.44;100.00
35908;BME280;22003;50.320;8.054;2023-11-18T07:58:44;100545.50;;;2.39;100.00
35908;BME280;22003;50.320;8.054;2023-11-18T08:01:13;100494.28;;;2.32;100.00
35908;BME280;22003;50.320;8.054;2023-11-18T08:03:39;100484.09;;;2.24;100.00
35908;BME280;22003;50.320;8.054;2023-11-18T08:06:06;100506.50;;;2.31;100.00
35908;BME280;22003;50.320;8.054;2023-11-18T08:08:33;100481.84;;;2.38;100.00
35908;BME280;22003;50.320;8.054;2023-11-18T08:10:58;100535.09;;;2.64;100.00
35908;BME280;22003;50.320;8.054;2023-11-18T08:13:25;100550.59;;;2.70;100.00
35908;BME280;22003;50.320;8.054;2023-11-18T08:15:51;100533.94;;;2.73;100.00
35908;BME280;22003;50.320;8.054;2023-11-18T08:18:17;100479.13;;;2.17;100.00
35908;BME280;22003;50.320;8.054;2023-11-18T08:20:43;100493.19;;;2.13;100.00
35908;BME280;22003;50.320;8.054;2023-11-18T08:23:09;100534.34;;;2.34;100.00
35908;BME280;22003;50.320;8.054;2023-11-18T08:25:35;100528.81;;;2.70;100.00
35908;BME280;22003;50.320;8.054;2023-11-18T08:28:03;100406.47;;;1.72;100.00
35908;BME280;22003;50.320;8.054;2023-11-18T08:30:29;100482.94;;;2.05;100.00
35908;BME280;22003;50.320;8.054;2023-11-18T08:32:55;100530.66;;;2.40;100.00
35908;BME280;22003;50.320;8.054;2023-11-18T08:35:20;100467.53;;;2.24;100.00
35908;BME280;22003;50.320;8.054;2023-11-18T08:37:47;100438.06;;;2.19;100.00
35908;BME280;22003;50.320;8.054;2023-11-18T08:40:12;100492.59;;;2.57;100.00
35908;BME280;22003;50.320;8.054;2023-11-18T08:42:45;100506.66;;;2.80;100.00
35908;BME280;22003;50.320;8.054;2023-11-18T08:45:27;100497.75;;;2.85;100.00
35908;BME280;22003;50.320;8.054;2023-11-18T08:47:58;100450.03;;;2.52;100.00
35908;BME280;22003;50.320;8.054;2023-11-18T08:50:25;100505.97;;;3.00;100.00
35908;BME280;22003;50.320;8.054;2023-11-18T08:52:52;100502.50;;;2.99;100.00
35908;BME280;22003;50.320;8.054;2023-11-18T08:55:23;100503.13;;;2.81;100.00
35908;BME280;22003;50.320;8.054;2023-11-18T08:58:03;100504.19;;;2.75;100.00
35908;BME280;22003;50.320;8.054;2023-11-18T09:00:40;100509.56;;;2.71;100.00
35908;BME280;22003;50.320;8.054;2023-11-18T09:03:17;100519.34;;;2.65;100.00
35908;BME280;22003;50.320;8.054;2023-11-18T09:05:46;100469.47;;;2.45;100.00
35908;BME280;22003;50.320;8.054;2023-11-18T09:08:32;100513.03;;;2.71;100.00
35908;BME280;22003;50.320;8.054;2023-11-18T09:11:00;100504.41;;;2.94;100.00
35908;BME280;22003;50.320;8.054;2023-11-18T09:13:26;100507.50;;;3.05;100.00
35908;BME280;22003;50.320;8.054;2023-11-18T09:15:59;100508.75;;;3.20;100.00
35908;BME280;22003;50.320;8.054;2023-11-18T09:18:28;100506.06;;;3.22;100.00
35908;BME280;22003;50.320;8.054;2023-11-18T09:20:55;100488.41;;;3.03;100.00
35908;BME280;22003;50.320;8.054;2023-11-18T09:23:22;100439.41;;;2.82;100.00
35908;BME280;22003;50.320;8.054;2023-11-18T09:25:49;100450.03;;;2.77;100.00
35908;BME280;22003;50.320;8.054;2023-11-18T09:28:15;100500.41;;;3.09;100.00
35908;BME280;22003;50.320;8.054;2023-11-18T09:30:42;100451.19;;;2.95;100.00
35908;BME280;22003;50.320;8.054;2023-11-18T09:33:19;100499.97;;;3.21;100.00
35908;BME280;22003;50.320;8.054;2023-11-18T09:35:53;100456.97;;;3.03;100.00
35908;BME280;22003;50.320;8.054;2023-11-18T09:38:32;100505.19;;;3.46;100.00
35908;BME280;22003;50.320;8.054;2023-11-18T09:41:01;100503.59;;;3.89;100.00
35908;BME280;22003;50.320;8.054;2023-11-18T09:43:31;100496.44;;;3.92;100.00
35908;BME280;22003;50.320;8.054;2023-11-18T09:46:15;100505.53;;;3.84;100.00
35908;BME280;22003;50.320;8.054;2023-11-18T09:48:45;100501.41;;;3.77;100.00
35908;BME280;22003;50.320;8.054;2023-11-18T09:51:14;100493.00;;;3.68;100.00
35908;BME280;22003;50.320;8.054;2023-11-18T09:53:43;100424.94;;;3.67;100.00
35908;BME280;22003;50.320;8.054;2023-11-18T09:56:17;100499.19;;;3.89;100.00
35908;BME280;22003;50.320;8.054;2023-11-18T09:58:57;100497.19;;;3.96;100.00
35908;BME280;22003;50.320;8.054;2023-11-18T10:01:26;100502.88;;;4.07;100.00
35908;BME280;22003;50.320;8.054;2023-11-18T10:03:54;100502.13;;;4.04;100.00
35908;BME280;22003;50.320;8.054;2023-11-18T10:06:23;100507.31;;;4.05;100.00
35908;BME280;22003;50.320;8.054;2023-11-18T10:08:52;100508.47;;;4.20;100.00
35908;BME280;22003;50.320;8.054;2023-11-18T10:11:18;100493.59;;;4.20;100.00
35908;BME280;22003;50.320;8.054;2023-11-18T10:13:48;100494.81;;;4.12;100.00
35908;BME280;22003;50.320;8.054;2023-11-18T10:16:14;100491.28;;;4.35;100.00
35908;BME280;22003;50.320;8.054;2023-11-18T10:18:39;100498.53;;;4.50;100.00
35908;BME280;22003;50.320;8.054;2023-11-18T10:21:14;100488.72;;;4.96;100.00
35908;BME280;22003;50.320;8.054;2023-11-18T10:23:58;100486.28;;;4.91;100.00
35908;BME280;22003;50.320;8.054;2023-11-18T10:26:25;100480.84;;;4.96;100.00
35908;BME280;22003;50.320;8.054;2023-11-18T10:28:50;100457.22;;;4.96;100.00
35908;BME280;22003;50.320;8.054;2023-11-18T10:31:18;100448.22;;;5.01;100.00
35908;BME280;22003;50.320;8.054;2023-11-18T10:33:44;100401.81;;;4.82;100.00
35908;BME280;22003;50.320;8.054;2023-11-18T10:36:23;100473.66;;;5.20;100.00
35908;BME280;22003;50.320;8.054;2023-11-18T10:38:50;100381.34;;;4.69;100.00
35908;BME280;22003;50.320;8.054;2023-11-18T10:41:18;100463.13;;;5.01;100.00
35908;BME280;22003;50.320;8.054;2023-11-18T10:43:43;100469.22;;;5.01;100.00
35908;BME280;22003;50.320;8.054;2023-11-18T10:46:10;100444.56;;;4.85;100.00
35908;BME280;22003;50.320;8.054;2023-11-18T10:51:06;100422.56;;;4.67;100.00
35908;BME280;22003;50.320;8.054;2023-11-18T10:53:32;100437.50;;;5.06;100.00
35908;BME280;22003;50.320;8.054;2023-11-18T10:55:58;100444.66;;;5.02;100.00
35908;BME280;22003;50.320;8.054;2023-11-18T10:58:23;100433.53;;;5.16;100.00
35908;BME280;22003;50.320;8.054;2023-11-18T11:00:52;100418.28;;;5.24;100.00
35908;BME280;22003;50.320;8.054;2023-11-18T11:03:21;100417.34;;;5.07;100.00
35908;BME280;22003;50.320;8.054;2023-11-18T11:05:49;100410.66;;;4.99;100.00
35908;BME280;22003;50.320;8.054;2023-11-18T11:08:15;100395.06;;;5.15;100.00
35908;BME280;22003;50.320;8.054;2023-11-18T11:10:44;100376.59;;;5.54;100.00
35908;BME280;22003;50.320;8.054;2023-11-18T11:13:09;100370.16;;;5.24;100.00
35908;BME280;22003;50.320;8.054;2023-11-18T11:15:46;100316.06;;;5.39;100.00
35908;BME280;22003;50.320;8.054;2023-11-18T11:18:21;100403.28;;;6.02;100.00
35908;BME280;22003;50.320;8.054;2023-11-18T11:21:27;100373.66;;;6.16;100.00
35908;BME280;22003;50.320;8.054;2023-11-18T11:24:04;100359.34;;;6.04;100.00
35908;BME280;22003;50.320;8.054;2023-11-18T11:29:39;100309.13;;;6.08;100.00
35908;BME280;22003;50.320;8.054;2023-11-18T11:32:16;100332.34;;;6.18;100.00
35908;BME280;22003;50.320;8.054;2023-11-18T11:34:53;100338.31;;;6.39;100.00
35908;BME280;22003;50.320;8.054;2023-11-18T11:37:24;100331.88;;;6.27;100.00
35908;BME280;22003;50.320;8.054;2023-11-18T11:39:51;100329.84;;;6.32;100.00
35908;BME280;22003;50.320;8.054;2023-11-18T11:42:20;100298.38;;;6.13;100.00
35908;BME280;22003;50.320;8.054;2023-11-18T11:44:46;100333.63;;;6.44;100.00
35908;BME280;22003;50.320;8.054;2023-11-18T11:47:13;100322.66;;;6.35;100.00
35908;BME280;22003;50.320;8.054;2023-11-18T11:50:03;100314.78;;;6.35;100.00
35908;BME280;22003;50.320;8.054;2023-11-18T11:52:36;100289.31;;;6.19;100.00
35908;BME280;22003;50.320;8.054;2023-11-18T11:55:09;100303.63;;;6.30;100.00
35908;BME280;22003;50.320;8.054;2023-11-18T11:57:41;100302.88;;;6.28;100.00
35908;BME280;22003;50.320;8.054;2023-11-18T12:00:10;100287.88;;;6.13;100.00
35908;BME280;22003;50.320;8.054;2023-11-18T12:02:49;100295.59;;;6.16;100.00
35908;BME280;22003;50.320;8.054;2023-11-18T12:05:17;100276.56;;;5.94;100.00
35908;BME280;22003;50.320;8.054;2023-11-18T12:07:44;100253.16;;;5.88;100.00
35908;BME280;22003;50.320;8.054;2023-11-18T12:10:11;100284.59;;;5.91;100.00
35908;BME280;22003;50.320;8.054;2023-11-18T12:12:45;100259.75;;;5.79;100.00
35908;BME280;22003;50.320;8.054;2023-11-18T12:15:11;100299.63;;;6.06;100.00
35908;BME280;22003;50.320;8.054;2023-11-18T12:20:46;100259.38;;;6.04;100.00
35908;BME280;22003;50.320;8.054;2023-11-18T12:23:19;100300.16;;;6.13;100.00
35908;BME280;22003;50.320;8.054;2023-11-18T12:25:49;100304.41;;;6.15;100.00
35908;BME280;22003;50.320;8.054;2023-11-18T12:28:19;100298.84;;;6.04;100.00
35908;BME280;22003;50.320;8.054;2023-11-18T12:30:47;100301.63;;;6.18;100.00
35908;BME280;22003;50.320;8.054;2023-11-18T12:33:24;100288.63;;;5.98;100.00
35908;BME280;22003;50.320;8.054;2023-11-18T12:41:04;100220.41;;;5.77;100.00
35908;BME280;22003;50.320;8.054;2023-11-18T12:43:48;100266.63;;;6.16;100.00
35908;BME280;22003;50.320;8.054;2023-11-18T12:49:04;100239.44;;;6.17;100.00
35908;BME280;22003;50.320;8.054;2023-11-18T12:51:32;100245.91;;;6.10;100.00
35908;BME280;22003;50.320;8.054;2023-11-18T12:54:01;100242.81;;;6.19;100.00
35908;BME280;22003;50.320;8.054;2023-11-18T12:56:28;100167.97;;;5.92;100.00
35908;BME280;22003;50.320;8.054;2023-11-18T12:58:55;100227.50;;;6.10;100.00
35908;BME280;22003;50.320;8.054;2023-11-18T13:01:20;100173.53;;;5.86;100.00
35908;BME280;22003;50.320;8.054;2023-11-18T13:03:45;100218.72;;;6.11;100.00
35908;BME280;22003;50.320;8.054;2023-11-18T13:06:12;100170.75;;;5.89;100.00
35908;BME280;22003;50.320;8.054;2023-11-18T13:08:38;100202.31;;;6.06;100.00